Time;durP1;ratioP1;P1;durP2;ratioP2;P2;SDS_P1;SDS_P2;PMS_P1;PMS_P2;Temp;Humidity;BMP_temperature;BMP_pressure;BME280_temperature;BME280_humidity;BME280_pressure;Samples;Min_cycle;Max_cycle;Signal;HPM_P1;HPM_P2
2023/04/25 00:00:26;;;;;;;21.55;7.65;;;9.30;78.70;;;;;;5005595;28;20139;-76
2023/04/25 00:02:52;;;;;;;17.35;7.40;;;9.30;78.70;;;;;;5015005;28;20088;-77
2023/04/25 00:05:19;;;;;;;19.75;8.60;;;9.30;78.80;;;;;;5006170;28;20030;-77
2023/04/25 00:07:45;;;;;;;25.30;9.27;;;9.30;78.90;;;;;;5000745;28;20049;-77
2023/04/25 00:10:11;;;;;;;23.67;9.07;;;9.30;78.90;;;;;;5007135;28;20032;-77
2023/04/25 00:12:38;;;;;;;20.63;8.07;;;9.20;79.00;;;;;;5003267;28;20042;-76
2023/04/25 00:15:05;;;;;;;22.30;9.02;;;9.10;79.30;;;;;;5007595;28;20018;-76
2023/04/25 00:17:31;;;;;;;23.38;8.40;;;9.10;79.70;;;;;;5010899;28;20133;-76
2023/04/25 00:19:58;;;;;;;19.38;8.63;;;9.10;79.80;;;;;;5007547;28;20029;-75
2023/04/25 00:22:23;;;;;;;22.33;8.20;;;9.20;79.70;;;;;;5011738;28;20037;-77
2023/04/25 00:24:50;;;;;;;22.33;8.38;;;9.20;79.70;;;;;;5006978;28;20526;-77
2023/04/25 00:27:15;;;;;;;21.15;7.85;;;9.20;79.70;;;;;;5003782;28;20038;-76
2023/04/25 00:29:41;;;;;;;18.08;7.28;;;9.20;79.90;;;;;;5005736;28;20414;-77
2023/04/25 00:32:07;;;;;;;21.65;7.80;;;9.20;80.00;;;;;;4999973;28;20030;-76
2023/04/25 00:34:32;;;;;;;21.05;8.88;;;9.10;80.10;;;;;;5005223;28;20559;-76
2023/04/25 00:37:01;;;;;;;31.13;9.02;;;9.10;80.40;;;;;;5005938;28;20540;-78
2023/04/25 00:39:27;;;;;;;20.90;8.15;;;9.10;80.50;;;;;;5007399;28;20026;-75
2023/04/25 00:41:54;;;;;;;25.90;7.82;;;9.10;80.60;;;;;;5012315;28;20033;-78
2023/04/25 00:44:20;;;;;;;20.70;8.27;;;9.10;80.90;;;;;;5004034;28;20433;-77
2023/04/25 00:46:48;;;;;;;20.23;8.10;;;9.10;81.00;;;;;;5000520;28;20053;-76
2023/04/25 00:49:16;;;;;;;25.98;8.55;;;9.10;81.30;;;;;;5006211;28;20033;-76
2023/04/25 00:51:42;;;;;;;21.45;8.50;;;9.00;81.30;;;;;;5004085;28;20034;-75
2023/04/25 00:54:07;;;;;;;18.35;7.57;;;9.00;81.40;;;;;;5006941;28;20060;-75
2023/04/25 00:56:33;;;;;;;22.92;8.32;;;8.90;81.60;;;;;;5007828;28;20486;-76
2023/04/25 00:58:59;;;;;;;19.02;8.00;;;9.00;81.70;;;;;;5001595;28;20029;-77
2023/04/25 01:01:25;;;;;;;25.83;7.93;;;8.90;81.70;;;;;;4997229;28;20049;-76
2023/04/25 01:03:53;;;;;;;23.98;8.75;;;8.90;81.80;;;;;;5004608;28;20021;-76
2023/04/25 01:06:19;;;;;;;23.73;8.23;;;8.90;81.80;;;;;;5010187;28;20025;-76
2023/04/25 01:08:45;;;;;;;21.85;9.15;;;8.90;82.10;;;;;;5008339;28;20026;-76
2023/04/25 01:11:11;;;;;;;21.52;8.80;;;8.90;82.20;;;;;;5004957;28;20026;-76
2023/04/25 01:13:36;;;;;;;21.02;8.57;;;8.90;82.30;;;;;;5006752;28;20208;-76
2023/04/25 01:16:03;;;;;;;19.20;8.05;;;8.90;82.40;;;;;;5005122;28;20038;-76
2023/04/25 01:18:29;;;;;;;19.88;8.23;;;8.90;82.50;;;;;;4997951;28;20022;-76
2023/04/25 01:20:55;;;;;;;22.80;9.13;;;8.90;82.50;;;;;;4998808;28;20030;-76
2023/04/25 01:23:22;;;;;;;25.80;8.75;;;8.90;82.40;;;;;;5003273;28;20010;-79
2023/04/25 01:25:51;;;;;;;24.10;8.70;;;8.90;82.50;;;;;;5001425;28;20128;-77
2023/04/25 01:28:16;;;;;;;24.92;8.50;;;8.80;82.40;;;;;;5005295;28;20036;-78
2023/04/25 01:30:42;;;;;;;24.95;8.80;;;8.80;82.30;;;;;;5001605;28;20413;-78
2023/04/25 01:33:08;;;;;;;21.88;8.50;;;8.80;82.20;;;;;;5004599;28;20129;-78
2023/04/25 01:35:34;;;;;;;21.90;8.27;;;8.60;82.10;;;;;;5004605;28;20035;-77
2023/04/25 01:38:00;;;;;;;25.33;7.40;;;8.70;82.10;;;;;;5004524;28;20121;-77
2023/04/25 01:40:27;;;;;;;23.02;7.65;;;8.60;81.20;;;;;;5009042;28;20033;-76
2023/04/25 01:42:54;;;;;;;25.73;7.55;;;8.50;81.10;;;;;;5004920;28;20104;-78
2023/04/25 01:45:20;;;;;;;20.13;7.10;;;8.50;80.30;;;;;;5006624;28;20291;-77
2023/04/25 01:47:50;;;;;;;18.80;6.97;;;8.40;79.80;;;;;;5005953;28;20081;-77
2023/04/25 01:50:18;;;;;;;20.38;7.22;;;8.40;79.20;;;;;;5003301;28;21291;-77
2023/04/25 01:52:44;;;;;;;18.20;7.13;;;8.40;78.40;;;;;;5000670;28;20390;-75
2023/04/25 01:55:09;;;;;;;19.92;7.38;;;8.50;78.40;;;;;;5003224;28;20022;-75
2023/04/25 01:57:35;;;;;;;28.92;7.88;;;8.40;78.90;;;;;;5002617;28;20473;-76
2023/04/25 02:00:05;;;;;;;23.13;6.55;;;8.20;79.40;;;;;;5006757;28;20056;-77
2023/04/25 02:02:31;;;;;;;18.17;6.50;;;8.20;79.80;;;;;;5017601;28;20137;-75
2023/04/25 02:04:57;;;;;;;19.70;7.07;;;8.20;80.10;;;;;;5002661;28;20454;-77
2023/04/25 02:07:22;;;;;;;19.23;7.07;;;8.10;80.20;;;;;;5001539;28;20033;-76
2023/04/25 02:09:48;;;;;;;14.13;6.18;;;8.20;80.40;;;;;;5002425;28;20446;-76
2023/04/25 02:12:14;;;;;;;17.58;7.13;;;8.20;80.80;;;;;;5005835;28;20041;-77
2023/04/25 02:14:40;;;;;;;25.52;8.25;;;8.20;80.90;;;;;;5000016;28;20032;-78
2023/04/25 02:17:05;;;;;;;20.67;7.90;;;8.20;81.60;;;;;;4996489;28;20073;-77
2023/04/25 02:19:31;;;;;;;18.90;8.00;;;8.20;81.80;;;;;;5000326;28;20080;-77
2023/04/25 02:21:57;;;;;;;19.48;6.90;;;8.10;81.50;;;;;;4991022;28;20489;-76
2023/04/25 02:24:23;;;;;;;19.80;6.78;;;7.90;81.40;;;;;;5002496;28;20487;-77
2023/04/25 02:26:49;;;;;;;24.27;7.80;;;7.90;81.30;;;;;;5001137;28;20096;-78
2023/04/25 02:29:15;;;;;;;19.75;7.03;;;7.80;81.30;;;;;;5004921;28;20022;-77
2023/04/25 02:31:41;;;;;;;15.80;5.93;;;7.80;81.40;;;;;;5005292;28;20033;-76
2023/04/25 02:34:07;;;;;;;23.92;6.82;;;7.90;81.10;;;;;;5005397;28;20085;-77
2023/04/25 02:36:35;;;;;;;18.88;7.53;;;7.80;80.90;;;;;;5005281;28;20029;-75
2023/04/25 02:39:01;;;;;;;17.75;7.18;;;7.80;81.00;;;;;;5005988;28;20493;-78
2023/04/25 02:41:27;;;;;;;21.83;6.63;;;7.80;81.20;;;;;;5005658;28;20026;-77
2023/04/25 02:43:52;;;;;;;19.83;7.32;;;7.80;81.40;;;;;;5003178;28;20029;-77
2023/04/25 02:46:18;;;;;;;18.20;8.15;;;7.70;81.80;;;;;;5018435;28;20072;-77
2023/04/25 02:48:44;;;;;;;20.73;7.10;;;7.70;82.00;;;;;;5001887;28;20034;-77
2023/04/25 02:51:10;;;;;;;19.83;6.50;;;7.70;82.10;;;;;;5007394;28;20030;-77
2023/04/25 02:53:35;;;;;;;19.58;6.97;;;7.70;82.00;;;;;;5013307;28;20061;-76
2023/04/25 02:56:01;;;;;;;18.02;7.07;;;7.70;82.00;;;;;;5010677;28;20072;-75
2023/04/25 02:58:27;;;;;;;21.60;6.20;;;7.80;82.00;;;;;;5003616;28;20076;-76
2023/04/25 03:00:53;;;;;;;21.45;7.18;;;7.80;82.00;;;;;;5005363;28;20131;-76
2023/04/25 03:03:21;;;;;;;17.90;6.40;;;7.80;81.80;;;;;;5002413;28;20010;-76
2023/04/25 03:05:48;;;;;;;16.75;5.82;;;7.80;82.00;;;;;;5006501;28;20029;-76
2023/04/25 03:08:15;;;;;;;23.88;6.97;;;7.80;82.00;;;;;;5005956;28;20041;-77
2023/04/25 03:10:41;;;;;;;14.60;6.85;;;7.80;82.00;;;;;;4993696;28;20073;-76
2023/04/25 03:13:07;;;;;;;22.10;6.95;;;7.80;82.10;;;;;;4998434;28;20048;-76
2023/04/25 03:15:33;;;;;;;19.65;6.82;;;7.70;82.00;;;;;;4997716;28;20022;-76
2023/04/25 03:17:58;;;;;;;16.52;6.47;;;7.70;82.10;;;;;;4999731;28;20034;-77
2023/04/25 03:20:24;;;;;;;18.75;7.55;;;7.80;82.30;;;;;;5005361;28;20405;-78
2023/04/25 03:22:50;;;;;;;16.75;7.07;;;7.70;82.30;;;;;;5003830;28;20744;-76
2023/04/25 03:25:16;;;;;;;19.98;7.60;;;7.80;82.40;;;;;;5007383;28;20476;-75
2023/04/25 03:27:41;;;;;;;16.30;6.95;;;7.70;82.60;;;;;;5007347;28;20140;-75
2023/04/25 03:30:07;;;;;;;21.15;7.57;;;7.80;82.80;;;;;;4995624;28;20381;-75
2023/04/25 03:32:34;;;;;;;21.83;7.43;;;7.70;82.90;;;;;;5010580;28;20038;-75
2023/04/25 03:34:59;;;;;;;22.02;7.50;;;7.60;82.90;;;;;;5004983;28;20092;-76
2023/04/25 03:37:25;;;;;;;14.55;6.85;;;7.50;83.20;;;;;;5007493;28;20426;-75
2023/04/25 03:39:51;;;;;;;21.25;7.47;;;7.60;82.90;;;;;;5009120;28;20030;-77
2023/04/25 03:42:17;;;;;;;20.92;6.10;;;7.40;82.70;;;;;;5000668;28;20402;-75
2023/04/25 03:44:43;;;;;;;16.13;6.00;;;7.30;81.40;;;;;;5004466;28;20030;-76
2023/04/25 03:47:09;;;;;;;15.43;5.47;;;7.30;80.80;;;;;;5004251;28;20034;-76
2023/04/25 03:49:35;;;;;;;15.07;4.93;;;7.30;80.80;;;;;;5012596;28;20024;-77
2023/04/25 03:52:02;;;;;;;16.23;5.40;;;7.30;80.40;;;;;;5003696;28;20175;-76
2023/04/25 03:54:27;;;;;;;14.60;5.43;;;7.30;80.00;;;;;;5006698;28;20354;-76
2023/04/25 03:56:53;;;;;;;19.55;5.43;;;7.40;79.80;;;;;;5008474;28;20026;-75
2023/04/25 03:59:19;;;;;;;14.55;5.30;;;7.40;79.30;;;;;;5007660;28;20030;-76
2023/04/25 04:01:44;;;;;;;16.38;5.28;;;7.40;78.90;;;;;;5010306;28;20520;-77
2023/04/25 04:04:10;;;;;;;13.98;4.85;;;7.50;78.80;;;;;;5009758;28;20025;-77
2023/04/25 04:06:36;;;;;;;14.48;5.50;;;7.40;78.40;;;;;;5017278;28;20030;-76
2023/04/25 04:09:02;;;;;;;13.48;4.63;;;7.40;78.20;;;;;;5007570;28;20152;-78
2023/04/25 04:11:28;;;;;;;17.00;5.47;;;7.40;78.00;;;;;;5009999;28;20092;-76
2023/04/25 04:13:54;;;;;;;13.80;5.18;;;7.40;77.90;;;;;;5004272;28;20392;-77
2023/04/25 04:16:20;;;;;;;12.88;5.38;;;7.50;78.00;;;;;;5003346;28;20084;-77
2023/04/25 04:18:46;;;;;;;12.32;5.03;;;7.50;77.80;;;;;;5008756;28;20021;-77
2023/04/25 04:21:12;;;;;;;14.68;5.53;;;7.50;77.80;;;;;;5006564;28;20033;-77
2023/04/25 04:23:37;;;;;;;12.65;4.55;;;7.50;77.90;;;;;;4997707;28;20107;-77
2023/04/25 04:26:03;;;;;;;14.73;5.20;;;7.60;78.00;;;;;;5005192;28;20139;-77
2023/04/25 04:28:29;;;;;;;15.10;4.97;;;7.60;78.00;;;;;;5005545;28;20378;-75
2023/04/25 04:30:55;;;;;;;13.77;5.13;;;7.60;77.90;;;;;;5006160;28;20772;-76
2023/04/25 04:33:23;;;;;;;16.27;5.38;;;7.50;78.10;;;;;;5005923;28;20093;-78
2023/04/25 04:35:52;;;;;;;16.25;6.35;;;7.50;78.50;;;;;;5004309;28;20025;-77
2023/04/25 04:38:18;;;;;;;16.92;5.72;;;7.50;78.70;;;;;;5004659;28;20092;-77
2023/04/25 04:40:44;;;;;;;13.23;5.65;;;7.40;78.90;;;;;;4996869;28;20030;-76
2023/04/25 04:43:10;;;;;;;16.40;6.40;;;7.40;79.30;;;;;;5001395;28;20017;-77
2023/04/25 04:45:37;;;;;;;16.55;6.45;;;7.40;79.40;;;;;;5003530;28;20439;-75
2023/04/25 04:48:06;;;;;;;16.60;5.72;;;7.40;79.40;;;;;;5002232;28;20042;-76
2023/04/25 04:50:32;;;;;;;19.05;6.60;;;7.50;79.50;;;;;;5020435;28;20348;-78
2023/04/25 04:52:58;;;;;;;20.10;6.57;;;7.40;79.30;;;;;;5003760;28;20160;-77
2023/04/25 04:55:24;;;;;;;15.93;5.95;;;7.40;79.10;;;;;;5005664;28;20043;-77
2023/04/25 04:57:50;;;;;;;18.08;6.03;;;7.30;79.00;;;;;;5002509;28;20042;-76
2023/04/25 05:00:15;;;;;;;17.17;5.50;;;7.30;79.10;;;;;;5003908;28;20022;-76
2023/04/25 05:02:41;;;;;;;17.40;5.38;;;7.30;79.00;;;;;;5003652;28;20109;-75
2023/04/25 05:05:07;;;;;;;17.45;6.25;;;7.40;79.10;;;;;;5005616;28;20469;-77
2023/04/25 05:07:33;;;;;;;15.32;6.22;;;7.40;79.10;;;;;;5009746;28;20033;-76
2023/04/25 05:09:59;;;;;;;18.23;6.32;;;7.40;78.80;;;;;;5007299;28;20061;-77
2023/04/25 05:12:25;;;;;;;13.13;5.65;;;7.30;78.40;;;;;;5006720;28;20453;-75
2023/04/25 05:14:50;;;;;;;17.13;5.55;;;7.40;78.50;;;;;;5011251;28;20049;-75
2023/04/25 05:17:16;;;;;;;20.42;6.70;;;7.40;78.10;;;;;;4999718;28;20382;-77
2023/04/25 05:19:42;;;;;;;11.23;4.63;;;7.40;77.80;;;;;;5001826;28;20035;-77
2023/04/25 05:22:07;;;;;;;13.80;4.90;;;7.40;77.30;;;;;;5002602;28;20051;-75
2023/04/25 05:24:33;;;;;;;14.70;4.82;;;7.50;77.30;;;;;;5002434;28;20095;-77
2023/04/25 05:26:59;;;;;;;17.48;6.15;;;7.50;77.00;;;;;;5003411;28;20052;-76
2023/04/25 05:29:26;;;;;;;13.98;5.18;;;7.60;77.10;;;;;;5007404;28;20390;-78
2023/04/25 05:31:52;;;;;;;15.93;5.00;;;7.60;77.00;;;;;;5007673;28;20675;-76
2023/04/25 05:34:18;;;;;;;17.70;5.38;;;7.60;76.90;;;;;;4995787;28;20104;-77
2023/04/25 05:36:44;;;;;;;14.95;5.20;;;7.70;76.90;;;;;;4997772;28;20137;-78
2023/04/25 05:39:10;;;;;;;16.67;5.68;;;7.80;76.70;;;;;;5001901;28;20384;-76
2023/04/25 05:41:35;;;;;;;20.10;5.90;;;7.90;76.90;;;;;;5017508;28;20042;-75
2023/04/25 05:44:02;;;;;;;13.00;5.30;;;7.90;76.70;;;;;;5001910;28;20117;-75
2023/04/25 05:46:27;;;;;;;18.08;5.20;;;8.00;76.90;;;;;;5002509;28;20121;-75
2023/04/25 05:48:53;;;;;;;14.15;5.32;;;7.90;76.40;;;;;;4999955;28;20030;-78
2023/04/25 05:51:19;;;;;;;15.05;5.15;;;7.90;76.70;;;;;;4994286;28;20038;-76
2023/04/25 05:53:45;;;;;;;16.25;5.60;;;8.00;76.40;;;;;;5003324;28;20066;-76
2023/04/25 05:56:10;;;;;;;16.73;6.32;;;8.00;76.60;;;;;;5007083;28;20029;-77
2023/04/25 05:58:36;;;;;;;16.25;6.45;;;8.10;76.90;;;;;;5000272;28;20072;-77
2023/04/25 06:01:02;;;;;;;14.43;6.93;;;8.10;77.10;;;;;;5005539;28;20041;-77
2023/04/25 06:03:28;;;;;;;16.08;6.80;;;8.20;77.20;;;;;;4995077;28;20100;-77
2023/04/25 06:05:54;;;;;;;16.10;6.82;;;8.40;77.60;;;;;;5001114;28;20038;-78
2023/04/25 06:08:19;;;;;;;17.02;6.28;;;8.50;77.10;;;;;;5011291;28;20369;-77
2023/04/25 06:10:45;;;;;;;20.67;6.78;;;8.50;76.20;;;;;;5002893;28;20025;-77
2023/04/25 06:13:11;;;;;;;14.02;6.18;;;8.60;76.00;;;;;;5005117;28;20330;-76
2023/04/25 06:15:36;;;;;;;14.43;6.20;;;8.60;75.60;;;;;;5004344;28;20048;-76
2023/04/25 06:18:02;;;;;;;12.73;5.15;;;8.60;75.30;;;;;;4995916;28;20034;-76
2023/04/25 06:20:28;;;;;;;14.30;5.57;;;8.60;74.80;;;;;;5003404;28;20034;-76
2023/04/25 06:22:54;;;;;;;15.02;5.75;;;8.70;74.60;;;;;;5009488;28;20104;-75
2023/04/25 06:25:20;;;;;;;16.63;5.72;;;8.60;74.60;;;;;;5007874;28;20018;-75
2023/04/25 06:27:45;;;;;;;13.90;5.45;;;8.70;73.60;;;;;;5001821;28;20128;-75
2023/04/25 06:30:12;;;;;;;21.02;5.47;;;8.60;74.10;;;;;;5004089;28;20025;-75
2023/04/25 06:32:38;;;;;;;14.30;4.88;;;8.60;73.30;;;;;;5000030;28;20804;-75
2023/04/25 06:35:05;;;;;;;17.65;5.35;;;8.50;73.50;;;;;;5002319;28;20022;-75
2023/04/25 06:37:30;;;;;;;14.02;4.78;;;8.60;73.50;;;;;;5007910;28;20034;-75
2023/04/25 06:39:56;;;;;;;18.20;5.50;;;8.60;73.60;;;;;;5002620;28;20032;-74
2023/04/25 06:42:22;;;;;;;13.27;4.53;;;8.70;73.60;;;;;;5001374;28;20089;-74
2023/04/25 06:44:48;;;;;;;16.50;4.97;;;8.80;73.70;;;;;;5000056;28;20030;-75
2023/04/25 06:47:14;;;;;;;17.88;5.28;;;8.80;73.40;;;;;;4998515;28;20042;-75
2023/04/25 06:49:40;;;;;;;13.88;5.15;;;8.80;72.30;;;;;;5001980;28;20034;-75
2023/04/25 06:52:05;;;;;;;14.10;4.63;;;8.80;72.10;;;;;;5001933;28;20026;-75
2023/04/25 06:54:31;;;;;;;16.15;4.78;;;8.70;72.10;;;;;;5000342;28;20105;-74
2023/04/25 06:56:57;;;;;;;16.00;5.43;;;8.90;72.00;;;;;;4995607;28;20042;-76
2023/04/25 06:59:23;;;;;;;14.00;4.82;;;8.90;72.00;;;;;;4996105;28;20045;-75
2023/04/25 07:01:48;;;;;;;16.52;4.35;;;9.10;71.80;;;;;;4999905;28;20359;-76
2023/04/25 07:04:14;;;;;;;13.48;4.47;;;9.20;71.60;;;;;;4999339;28;20049;-75
2023/04/25 07:06:42;;;;;;;11.32;4.18;;;9.10;71.10;;;;;;5002175;28;20030;-76
2023/04/25 07:09:11;;;;;;;11.88;4.30;;;9.10;70.90;;;;;;4999256;28;20113;-75
2023/04/25 07:11:37;;;;;;;12.88;4.20;;;9.10;70.30;;;;;;4999828;28;20240;-75
2023/04/25 07:14:03;;;;;;;12.70;3.80;;;9.20;70.80;;;;;;4999695;28;20029;-75
2023/04/25 07:16:29;;;;;;;12.52;4.95;;;9.20;69.70;;;;;;4997964;28;20034;-75
2023/04/25 07:18:55;;;;;;;10.93;3.95;;;9.10;69.90;;;;;;5002155;28;21487;-75
2023/04/25 07:21:21;;;;;;;9.45;3.38;;;9.10;69.10;;;;;;5003304;28;20117;-74
2023/04/25 07:23:46;;;;;;;10.93;4.07;;;9.10;68.80;;;;;;5007198;28;20662;-74
2023/04/25 07:26:12;;;;;;;16.30;4.30;;;9.20;68.30;;;;;;5007289;28;20029;-74
2023/04/25 07:28:37;;;;;;;14.02;3.72;;;9.20;69.00;;;;;;5003808;28;20489;-74
2023/04/25 07:31:03;;;;;;;12.50;5.80;;;9.40;69.10;;;;;;5011842;28;20089;-74
2023/04/25 07:33:29;;;;;;;11.70;3.40;;;9.60;69.60;;;;;;5009542;28;20093;-76
2023/04/25 07:35:55;;;;;;;12.40;3.67;;;9.60;67.60;;;;;;5005790;28;20425;-74
2023/04/25 07:38:21;;;;;;;12.38;3.00;;;9.50;68.30;;;;;;5003673;28;20121;-75
2023/04/25 07:40:50;;;;;;;13.98;3.13;;;9.60;68.00;;;;;;5001739;28;20113;-73
2023/04/25 07:43:16;;;;;;;13.98;3.83;;;9.50;68.30;;;;;;5006881;28;20111;-74
2023/04/25 07:45:43;;;;;;;13.40;3.30;;;9.50;68.00;;;;;;5007696;28;20097;-74
2023/04/25 07:48:09;;;;;;;15.18;3.33;;;9.50;67.90;;;;;;5009316;28;20441;-74
2023/04/25 07:50:34;;;;;;;12.52;4.15;;;9.60;68.20;;;;;;4998736;28;20456;-75
2023/04/25 07:53:00;;;;;;;16.90;3.50;;;9.90;67.90;;;;;;5000467;28;20049;-73
2023/04/25 07:55:26;;;;;;;15.52;5.43;;;10.10;66.60;;;;;;5004747;28;20443;-74
2023/04/25 07:57:52;;;;;;;15.45;4.72;;;10.30;66.70;;;;;;5003089;28;20408;-74
2023/04/25 08:00:18;;;;;;;10.98;3.30;;;10.50;64.50;;;;;;5003399;28;20255;-74
2023/04/25 08:02:44;;;;;;;16.20;4.88;;;10.60;64.30;;;;;;5006521;28;20018;-74
2023/04/25 08:05:11;;;;;;;13.68;3.60;;;10.80;62.30;;;;;;5013948;28;20091;-74
2023/04/25 08:07:38;;;;;;;15.45;3.42;;;11.00;61.90;;;;;;5000323;28;20045;-75
2023/04/25 08:10:06;;;;;;;11.57;2.90;;;11.10;63.10;;;;;;5009210;28;20101;-75
2023/04/25 08:12:31;;;;;;;10.55;2.92;;;11.10;61.90;;;;;;5001468;28;20107;-76
2023/04/25 08:14:57;;;;;;;10.48;3.53;;;10.70;61.50;;;;;;5003726;28;20462;-75
2023/04/25 08:17:23;;;;;;;12.70;3.00;;;10.30;63.50;;;;;;4998284;28;20038;-75
2023/04/25 08:19:49;;;;;;;9.02;2.63;;;9.80;66.40;;;;;;5003950;28;20056;-77
2023/04/25 08:22:15;;;;;;;10.43;3.30;;;9.70;67.30;;;;;;5008378;28;20467;-76
2023/04/25 08:24:41;;;;;;;9.65;3.17;;;9.70;68.50;;;;;;5007181;28;20145;-76
2023/04/25 08:27:07;;;;;;;16.15;5.07;;;9.60;69.30;;;;;;5006270;28;20399;-76
2023/04/25 08:29:34;;;;;;;16.10;4.85;;;9.70;68.80;;;;;;5012507;28;20022;-78
2023/04/25 08:32:00;;;;;;;13.80;4.25;;;9.80;68.00;;;;;;5022408;28;20374;-76
2023/04/25 08:34:26;;;;;;;15.18;6.20;;;10.00;68.30;;;;;;5007876;28;20554;-74
2023/04/25 08:36:52;;;;;;;13.73;5.00;;;10.10;67.00;;;;;;5006972;28;20160;-75
2023/04/25 08:39:18;;;;;;;14.65;3.55;;;10.30;67.40;;;;;;5010025;28;20347;-74
2023/04/25 08:41:44;;;;;;;12.93;2.88;;;10.30;66.10;;;;;;5011122;28;20026;-76
2023/04/25 08:44:11;;;;;;;15.10;3.33;;;10.50;63.80;;;;;;5014716;28;20084;-76
2023/04/25 08:46:40;;;;;;;8.68;2.55;;;11.00;63.10;;;;;;5004008;28;20119;-76
2023/04/25 08:49:08;;;;;;;14.95;3.13;;;11.20;62.60;;;;;;4998892;28;20132;-78
2023/04/25 08:51:40;;;;;;;11.82;3.00;;;11.60;62.50;;;;;;4996309;28;20050;-73
2023/04/25 08:54:11;;;;;;;11.93;2.55;;;11.70;61.50;;;;;;5007665;28;20017;-76
2023/04/25 08:56:40;;;;;;;9.23;2.65;;;11.60;59.90;;;;;;5022794;28;20026;-75
2023/04/25 08:59:07;;;;;;;8.90;2.22;;;11.70;58.60;;;;;;5006210;28;20104;-74
2023/04/25 09:01:35;;;;;;;11.55;2.78;;;11.50;59.80;;;;;;5004130;28;20374;-74
2023/04/25 09:04:00;;;;;;;10.25;2.85;;;11.20;58.60;;;;;;5002438;28;20026;-74
2023/04/25 09:06:28;;;;;;;9.32;2.13;;;11.10;59.80;;;;;;5008553;28;20529;-74
2023/04/25 09:08:54;;;;;;;10.00;2.65;;;11.00;59.60;;;;;;5010141;28;20026;-77
2023/04/25 09:11:20;;;;;;;11.75;3.25;;;10.90;60.60;;;;;;5009387;28;20037;-76
2023/04/25 09:13:45;;;;;;;14.93;2.95;;;11.10;59.90;;;;;;5011660;28;20099;-77
2023/04/25 09:16:11;;;;;;;15.50;2.92;;;11.70;59.20;;;;;;5006595;28;20435;-79
2023/04/25 09:18:37;;;;;;;10.20;2.92;;;12.10;57.00;;;;;;5006999;28;20109;-79
2023/04/25 09:21:07;;;;;;;9.90;2.28;;;12.00;60.10;;;;;;5006105;28;20026;-79
2023/04/25 09:23:46;;;;;;;9.27;2.03;;;11.40;60.80;;;;;;5006584;28;20046;-76
2023/04/25 09:26:21;;;;;;;11.45;3.67;;;11.10;62.50;;;;;;5008450;28;20029;-75
2023/04/25 09:28:50;;;;;;;11.15;2.75;;;10.60;62.30;;;;;;5008320;28;20115;-77
2023/04/25 09:31:24;;;;;;;11.15;2.42;;;10.30;63.50;;;;;;5003540;28;20042;-80
2023/04/25 09:33:58;;;;;;;14.15;5.43;;;10.10;63.80;;;;;;5005925;28;20485;-79
2023/04/25 09:36:26;;;;;;;11.98;3.33;;;10.20;64.20;;;;;;5009161;28;20037;-80
2023/04/25 09:38:52;;;;;;;10.23;3.65;;;10.30;64.30;;;;;;4998187;28;20454;-76
2023/04/25 09:41:23;;;;;;;8.90;2.67;;;10.70;63.10;;;;;;4997878;28;20045;-76
2023/04/25 09:43:50;;;;;;;8.70;2.67;;;11.20;61.90;;;;;;5000848;28;20022;-76
2023/04/25 09:46:18;;;;;;;5.53;2.20;;;11.30;58.80;;;;;;5006177;28;20045;-77
2023/04/25 09:48:53;;;;;;;11.07;2.80;;;11.30;57.60;;;;;;5005415;28;20120;-78
2023/04/25 09:51:19;;;;;;;10.00;2.15;;;11.10;59.10;;;;;;4998439;28;20125;-79
2023/04/25 09:53:50;;;;;;;8.10;2.90;;;11.20;58.20;;;;;;5008063;28;20050;-78
2023/04/25 09:56:16;;;;;;;10.65;3.03;;;11.20;59.60;;;;;;4994381;28;20058;-79
2023/04/25 09:58:42;;;;;;;9.35;2.63;;;11.70;58.20;;;;;;5018918;28;20057;-79
2023/04/25 10:01:10;;;;;;;8.38;2.45;;;12.10;57.30;;;;;;5001915;28;20045;-78
2023/04/25 10:03:39;;;;;;;8.27;2.65;;;12.00;56.40;;;;;;5002939;28;20125;-76
2023/04/25 10:06:14;;;;;;;9.30;2.45;;;12.10;55.50;;;;;;5003117;28;20106;-79
2023/04/25 10:08:40;;;;;;;7.72;2.33;;;11.90;55.30;;;;;;5006966;28;20030;-80
2023/04/25 10:11:07;;;;;;;7.53;2.28;;;11.60;55.90;;;;;;5003836;28;20229;-80
2023/04/25 10:13:35;;;;;;;9.13;2.30;;;10.80;62.90;;;;;;5002238;28;20025;-82
2023/04/25 10:16:03;;;;;;;6.85;2.22;;;10.50;64.80;;;;;;5005690;28;20038;-81
2023/04/25 10:18:30;;;;;;;7.07;2.20;;;10.30;65.00;;;;;;5014207;28;20160;-81
2023/04/25 10:21:03;;;;;;;10.05;2.10;;;10.00;65.10;;;;;;5020498;28;20041;-78
2023/04/25 10:23:31;;;;;;;8.20;2.35;;;9.70;66.00;;;;;;5009627;28;20013;-82
2023/04/25 10:25:57;;;;;;;6.43;2.00;;;9.70;65.80;;;;;;5006369;28;20364;-80
2023/04/25 10:28:23;;;;;;;9.10;2.17;;;9.70;63.60;;;;;;5006882;28;20025;-81
2023/04/25 10:31:07;;;;;;;17.73;2.58;;;9.60;63.80;;;;;;5012675;28;20029;-80
2023/04/25 10:33:39;;;;;;;5.97;1.88;;;9.90;63.60;;;;;;4995650;28;20038;-80
2023/04/25 10:36:13;;;;;;;5.90;1.95;;;9.80;60.70;;;;;;4998115;28;20030;-81
2023/04/25 10:38:39;;;;;;;11.35;2.25;;;10.00;58.90;;;;;;5006678;28;20417;-77
2023/04/25 10:41:09;;;;;;;8.43;2.10;;;10.10;59.10;;;;;;5003874;28;20045;-78
2023/04/25 10:43:45;;;;;;;6.18;1.80;;;10.40;57.50;;;;;;5015244;28;20200;-82
2023/04/25 10:46:28;;;;;;;7.97;1.88;;;10.30;58.00;;;;;;5010255;28;20045;-83
2023/04/25 10:49:03;;;;;;;7.50;2.03;;;10.70;58.50;;;;;;5005779;28;20132;-84
2023/04/25 10:51:34;;;;;;;6.55;1.88;;;11.10;54.20;;;;;;5001143;28;20325;-81
2023/04/25 10:54:06;;;;;;;7.50;2.55;;;11.60;54.30;;;;;;5010770;28;20030;-81
2023/04/25 10:56:32;;;;;;;8.13;1.85;;;11.70;54.40;;;;;;5004278;28;20030;-83
2023/04/25 10:59:18;;;;;;;5.55;1.98;;;11.80;52.80;;;;;;5012735;28;20040;-82
2023/04/25 11:01:48;;;;;;;5.68;1.58;;;12.20;53.70;;;;;;4998921;28;20069;-80
2023/04/25 11:04:33;;;;;;;7.30;1.83;;;12.30;52.60;;;;;;5006100;28;20153;-80
2023/04/25 11:07:07;;;;;;;4.63;1.80;;;12.20;51.10;;;;;;5008280;28;20496;-81
2023/04/25 11:09:34;;;;;;;7.55;2.03;;;12.20;52.60;;;;;;5000315;28;20038;-81
2023/04/25 11:12:00;;;;;;;9.15;1.80;;;12.80;53.10;;;;;;4999107;28;20129;-80
2023/04/25 11:14:27;;;;;;;8.02;1.80;;;12.60;50.60;;;;;;5002787;28;20108;-79
2023/04/25 11:16:57;;;;;;;8.95;2.33;;;12.60;52.00;;;;;;5000102;28;20033;-79
2023/04/25 11:19:24;;;;;;;10.55;2.80;;;12.70;52.20;;;;;;5001411;28;20115;-79
2023/04/25 11:21:49;;;;;;;6.53;2.28;;;12.60;50.40;;;;;;5001823;28;20050;-79
2023/04/25 11:24:19;;;;;;;6.95;2.20;;;12.60;54.00;;;;;;5003248;28;20029;-79
2023/04/25 11:26:48;;;;;;;8.23;2.70;;;12.90;51.30;;;;;;5004853;28;20264;-78
2023/04/25 11:29:13;;;;;;;9.15;2.17;;;13.10;50.70;;;;;;5005637;28;20112;-78
2023/04/25 11:31:45;;;;;;;5.75;1.85;;;12.90;50.60;;;;;;5002458;28;20166;-80
2023/04/25 11:34:11;;;;;;;8.07;1.98;;;12.40;52.20;;;;;;5002622;28;20033;-82
2023/04/25 11:36:38;;;;;;;8.27;2.05;;;12.20;52.80;;;;;;5006930;28;20037;-82
2023/04/25 11:39:05;;;;;;;8.90;2.05;;;12.60;54.20;;;;;;5000592;28;20378;-82
2023/04/25 11:41:31;;;;;;;8.48;2.00;;;12.70;52.60;;;;;;5005878;28;20053;-80
2023/04/25 11:43:57;;;;;;;4.82;1.80;;;13.10;51.50;;;;;;5006041;28;20018;-79
2023/04/25 11:46:23;;;;;;;8.15;1.92;;;13.10;51.10;;;;;;5001336;28;20069;-79
2023/04/25 11:48:50;;;;;;;6.10;1.90;;;12.30;49.70;;;;;;5005239;28;20201;-76
2023/04/25 11:51:16;;;;;;;7.22;2.15;;;12.20;49.40;;;;;;5024308;28;20022;-76
2023/04/25 11:53:44;;;;;;;4.38;1.40;;;12.40;48.30;;;;;;5027793;28;20052;-76
2023/04/25 11:56:13;;;;;;;10.38;2.83;;;12.80;48.30;;;;;;5021556;28;20049;-80
2023/04/25 11:59:05;;;;;;;5.97;1.73;;;13.30;48.70;;;;;;5013453;28;20029;-79
2023/04/25 12:01:34;;;;;;;4.25;1.45;;;13.20;47.30;;;;;;5000986;28;20038;-80
2023/04/25 12:04:23;;;;;;;7.47;1.90;;;13.00;46.20;;;;;;5006973;28;20017;-80
2023/04/25 12:06:52;;;;;;;7.40;2.03;;;13.10;46.90;;;;;;5010799;28;20040;-84
2023/04/25 12:09:21;;;;;;;5.97;1.75;;;13.30;46.80;;;;;;5006998;28;20521;-83
2023/04/25 12:11:55;;;;;;;7.75;1.90;;;13.30;46.90;;;;;;5003664;28;20022;-79
2023/04/25 12:14:28;;;;;;;8.52;2.13;;;13.00;47.40;;;;;;5008171;28;20022;-82
2023/04/25 12:16:59;;;;;;;6.35;2.28;;;13.10;47.70;;;;;;5008102;28;20319;-83
2023/04/25 12:19:27;;;;;;;7.20;1.90;;;13.30;47.80;;;;;;5007984;28;20030;-81
2023/04/25 12:21:53;;;;;;;6.88;1.88;;;13.60;47.00;;;;;;5000987;28;20034;-81
2023/04/25 12:24:25;;;;;;;7.65;2.15;;;13.10;45.70;;;;;;5006293;28;20076;-81
2023/04/25 12:27:03;;;;;;;7.57;2.10;;;13.20;46.70;;;;;;5006709;28;20033;-85
2023/04/25 12:29:31;;;;;;;7.25;2.10;;;12.80;47.50;;;;;;5010111;28;20065;-83
2023/04/25 12:31:57;;;;;;;7.65;2.10;;;12.90;48.90;;;;;;5001951;28;20034;-83
2023/04/25 12:34:23;;;;;;;11.15;2.47;;;12.50;49.20;;;;;;5004841;28;20030;-79
2023/04/25 12:36:50;;;;;;;7.60;2.00;;;12.30;52.60;;;;;;5011230;28;20030;-79
2023/04/25 12:39:22;;;;;;;11.93;2.50;;;12.50;54.10;;;;;;5010767;28;20066;-79
2023/04/25 12:41:48;;;;;;;8.02;2.05;;;12.60;54.30;;;;;;5009964;28;20048;-82
2023/04/25 12:44:15;;;;;;;8.48;2.35;;;12.80;54.00;;;;;;5009842;28;20041;-85